createdAt,value
2023-01-15T00:00:51.063Z,38.10
2023-01-15T00:03:18.506Z,38.10
2023-01-15T00:05:45.451Z,38.10
2023-01-15T00:08:12.319Z,38.10
2023-01-15T00:10:39.213Z,38.10
2023-01-15T00:13:06.117Z,38.10
2023-01-15T00:15:33.051Z,38.10
2023-01-15T00:18:00.003Z,38.10
2023-01-15T00:20:26.918Z,38.10
2023-01-15T00:22:53.813Z,38.00
2023-01-15T00:25:40.772Z,38.00
2023-01-15T00:28:07.664Z,38.00
2023-01-15T00:30:34.544Z,38.00
2023-01-15T00:33:01.418Z,38.00
2023-01-15T00:35:28.318Z,38.00
2023-01-15T00:37:55.214Z,38.00
2023-01-15T00:40:22.932Z,38.00
2023-01-15T00:42:54.205Z,38.10
2023-01-15T00:45:21.735Z,38.10
2023-01-15T00:47:50.660Z,38.00
2023-01-15T00:50:17.643Z,38.10
2023-01-15T00:52:44.560Z,38.10
2023-01-15T00:55:11.439Z,38.10
2023-01-15T00:57:38.373Z,38.10
2023-01-15T01:00:05.548Z,38.10
2023-01-15T01:02:32.609Z,38.10
2023-01-15T01:04:59.532Z,38.10
2023-01-15T01:07:26.535Z,38.00
2023-01-15T01:09:53.520Z,38.00
2023-01-15T01:12:21.477Z,38.10
2023-01-15T01:14:48.386Z,38.00
2023-01-15T01:17:15.244Z,38.10
2023-01-15T01:19:42.138Z,38.10
2023-01-15T01:22:09.089Z,38.10
2023-01-15T01:24:36.091Z,38.00
2023-01-15T01:27:02.990Z,38.10
2023-01-15T01:29:29.877Z,38.10
2023-01-15T01:31:56.868Z,38.10
2023-01-15T01:34:23.772Z,38.10
2023-01-15T01:36:50.708Z,38.10
2023-01-15T01:39:18.586Z,38.10
2023-01-15T01:41:46.379Z,38.20
2023-01-15T01:44:33.167Z,38.10
2023-01-15T01:47:01.439Z,38.10
2023-01-15T01:49:28.321Z,38.10
2023-01-15T01:51:57.775Z,38.00
2023-01-15T01:54:25.278Z,38.10
2023-01-15T01:56:52.578Z,38.10
2023-01-15T01:59:20.687Z,38.00
2023-01-15T02:01:48.578Z,38.00
2023-01-15T02:04:16.093Z,38.00
2023-01-15T02:06:43.630Z,38.00
2023-01-15T02:09:10.904Z,38.20
2023-01-15T02:11:37.859Z,38.10
2023-01-15T02:14:10.329Z,38.00
2023-01-15T02:16:40.545Z,38.10
2023-01-15T02:19:27.364Z,38.00
2023-01-15T02:22:04.622Z,38.10
2023-01-15T02:24:39.743Z,38.10
2023-01-15T02:27:09.131Z,38.60
2023-01-15T02:29:55.953Z,38.10
2023-01-15T02:32:32.099Z,38.00
2023-01-15T02:35:01.463Z,38.00
2023-01-15T02:37:30.388Z,38.00
2023-01-15T02:39:59.641Z,38.00
2023-01-15T02:42:27.690Z,38.00
2023-01-15T02:44:55.617Z,38.00
2023-01-15T02:47:25.258Z,38.00
2023-01-15T02:49:53.682Z,38.00
2023-01-15T02:52:24.350Z,38.00
2023-01-15T02:54:54.982Z,38.00
2023-01-15T02:57:22.282Z,38.00
2023-01-15T02:59:50.326Z,38.00
2023-01-15T03:02:20.797Z,37.90
2023-01-15T03:04:50.414Z,38.00
2023-01-15T03:07:31.194Z,37.90
2023-01-15T03:09:58.378Z,38.00
2023-01-15T03:12:34.642Z,38.00
2023-01-15T03:15:07.147Z,37.90
2023-01-15T03:17:39.430Z,37.90
2023-01-15T03:20:13.469Z,38.00
2023-01-15T03:22:44.329Z,37.90
2023-01-15T03:25:19.309Z,37.90
2023-01-15T03:27:46.197Z,37.90
2023-01-15T03:30:14.970Z,37.90
2023-01-15T03:32:42.004Z,37.90
2023-01-15T03:35:28.757Z,37.90
2023-01-15T03:37:55.757Z,37.90
2023-01-15T03:40:23.028Z,37.90
2023-01-15T03:43:17.306Z,37.90
2023-01-15T03:45:45.860Z,37.90
2023-01-15T03:48:20.360Z,37.90
2023-01-15T03:50:53.276Z,37.90
2023-01-15T03:53:26.635Z,37.90
2023-01-15T03:55:59.938Z,37.90
2023-01-15T03:58:29.896Z,37.90
2023-01-15T04:00:59.986Z,37.90
2023-01-15T04:03:28.001Z,37.90
2023-01-15T04:05:56.615Z,37.90
2023-01-15T04:08:24.533Z,37.90
2023-01-15T04:10:52.988Z,37.90
2023-01-15T04:13:20.171Z,37.90
2023-01-15T04:15:47.109Z,37.90
2023-01-15T04:18:14.143Z,37.90
2023-01-15T04:20:41.048Z,37.90
2023-01-15T04:23:08.489Z,37.90
2023-01-15T04:25:35.452Z,37.90
2023-01-15T04:28:02.375Z,37.90
2023-01-15T04:30:29.284Z,37.90
2023-01-15T04:32:56.239Z,37.90
2023-01-15T04:35:23.197Z,37.90
2023-01-15T04:37:50.213Z,37.90
2023-01-15T04:40:37.049Z,37.90
2023-01-15T04:43:23.780Z,37.90
2023-01-15T04:45:50.730Z,37.90
2023-01-15T04:48:17.644Z,37.90
2023-01-15T04:50:44.555Z,37.80
2023-01-15T04:53:11.490Z,37.80
2023-01-15T04:55:38.450Z,37.80
2023-01-15T04:58:05.391Z,37.80
2023-01-15T05:00:32.326Z,37.80
2023-01-15T05:02:59.288Z,37.80
2023-01-15T05:05:26.179Z,37.80
2023-01-15T05:07:53.886Z,37.80
2023-01-15T05:10:20.797Z,37.90
2023-01-15T05:12:47.743Z,37.80
2023-01-15T05:15:14.671Z,37.80
2023-01-15T05:17:41.578Z,37.90
2023-01-15T05:20:08.783Z,37.80
2023-01-15T05:22:35.769Z,37.80
2023-01-15T05:25:02.802Z,37.80
2023-01-15T05:27:30.965Z,37.80
2023-01-15T05:29:57.855Z,37.80
2023-01-15T05:32:24.758Z,37.80
2023-01-15T05:34:51.655Z,37.80
2023-01-15T05:37:18.526Z,37.80
2023-01-15T05:39:45.476Z,37.60
2023-01-15T05:42:12.390Z,37.40
2023-01-15T05:44:39.372Z,37.30
2023-01-15T05:47:07.914Z,37.30
2023-01-15T05:49:35.018Z,37.30
2023-01-15T05:52:02.460Z,37.30
2023-01-15T05:54:31.038Z,37.20
2023-01-15T05:56:57.960Z,37.20
2023-01-15T05:59:25.807Z,37.20
2023-01-15T06:01:52.945Z,37.10
2023-01-15T06:04:21.547Z,37.00
2023-01-15T06:06:49.194Z,37.10
2023-01-15T06:09:16.107Z,37.10
2023-01-15T06:11:43.033Z,37.10
2023-01-15T06:14:10.745Z,37.10
2023-01-15T06:16:39.179Z,36.90
2023-01-15T06:19:08.280Z,36.90
2023-01-15T06:21:35.544Z,36.90
2023-01-15T06:24:02.671Z,36.80
2023-01-15T06:26:29.605Z,36.70
2023-01-15T06:28:56.584Z,36.70
2023-01-15T06:31:24.039Z,36.60
2023-01-15T06:33:51.085Z,36.60
2023-01-15T06:36:21.657Z,36.50
2023-01-15T06:38:48.981Z,36.50
2023-01-15T06:41:41.185Z,36.40
2023-01-15T06:44:31.335Z,36.30
2023-01-15T06:47:18.214Z,36.20
2023-01-15T06:49:45.095Z,36.20
2023-01-15T06:52:12.155Z,36.10
2023-01-15T06:54:39.333Z,36.10
2023-01-15T06:57:06.540Z,36.00
2023-01-15T06:59:33.558Z,35.90
2023-01-15T07:02:01.007Z,35.80
2023-01-15T07:04:27.875Z,35.70
2023-01-15T07:06:54.741Z,35.70
2023-01-15T07:09:21.695Z,35.60
2023-01-15T07:11:51.678Z,35.50
2023-01-15T07:14:19.626Z,35.50
2023-01-15T07:16:46.753Z,35.40
2023-01-15T07:19:13.888Z,35.30
2023-01-15T07:21:40.876Z,35.30
2023-01-15T07:24:08.131Z,35.20
2023-01-15T07:26:35.404Z,35.20
2023-01-15T07:29:02.385Z,35.10
2023-01-15T07:31:29.364Z,35.10
2023-01-15T07:33:57.261Z,35.00
2023-01-15T07:36:24.597Z,34.90
2023-01-15T07:38:51.654Z,34.80
2023-01-15T07:41:38.442Z,34.90
2023-01-15T07:44:25.318Z,34.80
2023-01-15T07:47:12.084Z,34.80
2023-01-15T07:49:45.639Z,34.70
2023-01-15T07:52:13.686Z,34.60
2023-01-15T07:54:40.705Z,34.50
2023-01-15T07:57:07.946Z,34.50
2023-01-15T07:59:34.901Z,34.50
2023-01-15T08:02:01.999Z,34.40
2023-01-15T08:04:28.992Z,34.30
2023-01-15T08:06:55.876Z,34.20
2023-01-15T08:09:22.797Z,34.20
2023-01-15T08:12:09.586Z,34.20
2023-01-15T08:14:56.335Z,34.20
2023-01-15T08:17:23.283Z,34.20
2023-01-15T08:19:50.194Z,34.10
2023-01-15T08:22:17.132Z,34.10
2023-01-15T08:24:44.080Z,34.10
2023-01-15T08:27:10.963Z,34.00
2023-01-15T08:29:37.970Z,34.00
2023-01-15T08:32:05.002Z,34.00
2023-01-15T08:34:31.955Z,34.00
2023-01-15T08:37:00.453Z,33.90
2023-01-15T08:39:28.116Z,33.90
2023-01-15T08:41:55.362Z,33.80
2023-01-15T08:44:23.650Z,33.80
2023-01-15T08:46:51.465Z,33.80
2023-01-15T08:49:18.950Z,33.70
2023-01-15T08:51:46.574Z,33.60
2023-01-15T08:54:13.625Z,33.60
2023-01-15T08:56:40.539Z,33.60
2023-01-15T08:59:08.300Z,33.40
2023-01-15T09:01:35.639Z,33.40
2023-01-15T09:04:03.183Z,33.30
2023-01-15T09:06:30.076Z,33.30
2023-01-15T09:08:57.022Z,33.20
2023-01-15T09:11:23.977Z,33.10
2023-01-15T09:13:51.828Z,33.10
2023-01-15T09:16:18.828Z,33.00
2023-01-15T09:18:46.084Z,33.00
2023-01-15T09:21:13.029Z,33.00
2023-01-15T09:23:40.053Z,32.90
2023-01-15T09:26:07.443Z,32.90
2023-01-15T09:28:35.074Z,32.80
2023-01-15T09:31:02.085Z,32.70
2023-01-15T09:33:29.035Z,32.70
2023-01-15T09:35:55.973Z,32.60
2023-01-15T09:38:22.878Z,32.60
2023-01-15T09:40:52.348Z,32.50
2023-01-15T09:43:50.078Z,32.60
2023-01-15T09:46:22.408Z,32.50
2023-01-15T09:49:09.157Z,32.50
2023-01-15T09:51:44.238Z,32.40
2023-01-15T09:54:25.356Z,32.40
2023-01-15T09:56:53.854Z,32.30
2023-01-15T09:59:26.761Z,32.30
2023-01-15T10:01:53.981Z,32.30
2023-01-15T10:04:34.478Z,32.20
2023-01-15T10:07:08.194Z,32.20
2023-01-15T10:09:37.797Z,32.20
2023-01-15T10:12:29.261Z,32.10
2023-01-15T10:15:16.033Z,32.10
2023-01-15T10:17:44.479Z,32.00
2023-01-15T10:20:31.220Z,32.00
2023-01-15T10:23:06.086Z,31.90
2023-01-15T10:25:40.051Z,31.80
2023-01-15T10:28:13.701Z,31.70
2023-01-15T10:30:43.520Z,31.70
2023-01-15T10:33:25.962Z,31.60
2023-01-15T10:36:02.715Z,31.70
2023-01-15T10:38:33.798Z,31.50
2023-01-15T10:41:14.206Z,31.50
2023-01-15T10:43:44.855Z,31.50
2023-01-15T10:46:19.376Z,31.50
2023-01-15T10:48:48.544Z,31.50
2023-01-15T10:51:28.176Z,31.40
2023-01-15T10:53:58.610Z,31.40
2023-01-15T10:56:44.152Z,31.40
2023-01-15T10:59:30.942Z,31.30
2023-01-15T11:01:59.670Z,31.30
2023-01-15T11:04:29.313Z,31.20
2023-01-15T11:07:01.263Z,31.30
2023-01-15T11:09:32.491Z,31.20
2023-01-15T11:12:26.714Z,31.10
2023-01-15T11:15:13.531Z,31.10
2023-01-15T11:18:06.634Z,31.10
2023-01-15T11:20:42.975Z,31.00
2023-01-15T11:23:11.403Z,31.00
2023-01-15T11:25:39.794Z,30.90
2023-01-15T11:28:07.253Z,30.90
2023-01-15T11:30:37.569Z,30.80
2023-01-15T11:33:08.263Z,30.80
2023-01-15T11:35:35.157Z,30.80
2023-01-15T11:38:06.749Z,30.80
2023-01-15T11:40:33.727Z,30.70
2023-01-15T11:43:20.633Z,30.70
2023-01-15T11:46:08.576Z,30.70
2023-01-15T11:49:05.538Z,30.60
2023-01-15T11:51:41.648Z,30.50
2023-01-15T11:54:10.273Z,30.50
2023-01-15T11:56:40.988Z,30.60
2023-01-15T11:59:10.693Z,30.50
2023-01-15T12:01:39.160Z,30.50
2023-01-15T12:04:24.281Z,30.50
2023-01-15T12:06:51.233Z,30.50
2023-01-15T12:09:33.795Z,30.40
2023-01-15T12:12:20.632Z,30.30
2023-01-15T12:15:07.426Z,30.40
2023-01-15T12:17:54.150Z,30.40
2023-01-15T12:20:29.935Z,30.40
2023-01-15T12:23:16.692Z,30.30
2023-01-15T12:25:53.302Z,30.30
2023-01-15T12:28:25.564Z,30.30
2023-01-15T12:30:58.589Z,30.30
2023-01-15T12:33:45.379Z,30.30
2023-01-15T12:36:29.269Z,30.30
2023-01-15T12:39:01.125Z,30.20
2023-01-15T12:41:52.829Z,30.60
2023-01-15T12:44:47.291Z,30.30
2023-01-15T12:47:16.885Z,30.30
2023-01-15T12:49:46.544Z,30.30
2023-01-15T12:52:20.921Z,30.30
2023-01-15T12:54:51.858Z,30.30
2023-01-15T12:57:25.243Z,30.30
2023-01-15T13:00:01.673Z,30.30
2023-01-15T13:02:35.157Z,30.40
2023-01-15T13:05:22.411Z,30.50
2023-01-15T13:08:09.402Z,30.50
2023-01-15T13:10:38.994Z,30.60
2023-01-15T13:13:15.305Z,30.70
2023-01-15T13:15:49.759Z,30.70
2023-01-15T13:18:36.494Z,30.70
2023-01-15T13:21:09.633Z,30.70
2023-01-15T13:23:56.690Z,30.70
2023-01-15T13:26:34.859Z,30.70
2023-01-15T13:29:10.215Z,30.70
2023-01-15T13:31:51.891Z,30.70
2023-01-15T13:34:26.392Z,30.70
2023-01-15T13:36:55.203Z,30.70
2023-01-15T13:39:28.038Z,30.80
2023-01-15T13:42:15.039Z,30.80
2023-01-15T13:44:46.999Z,30.70
2023-01-15T13:47:19.214Z,30.70
2023-01-15T13:49:52.271Z,30.70
2023-01-15T13:52:31.390Z,30.80
2023-01-15T13:55:00.397Z,30.80
2023-01-15T13:57:36.556Z,30.80
2023-01-15T14:00:05.048Z,30.80
2023-01-15T14:02:34.703Z,30.90
2023-01-15T14:05:21.436Z,30.90
2023-01-15T14:07:48.317Z,30.90
2023-01-15T14:10:24.795Z,31.00
2023-01-15T14:13:11.585Z,31.00
2023-01-15T14:15:58.021Z,31.10
2023-01-15T14:18:44.748Z,31.10
2023-01-15T14:21:24.945Z,31.10
2023-01-15T14:24:01.403Z,31.10
2023-01-15T14:26:47.468Z,31.10
2023-01-15T14:29:33.544Z,31.20
2023-01-15T14:32:07.583Z,31.20
2023-01-15T14:34:35.643Z,31.20
2023-01-15T14:37:08.149Z,31.30
2023-01-15T14:39:42.025Z,31.30
2023-01-15T14:42:35.837Z,31.30
2023-01-15T14:45:08.221Z,31.40
2023-01-15T14:47:36.939Z,31.30
2023-01-15T14:50:22.312Z,31.40
2023-01-15T14:52:49.722Z,31.40
2023-01-15T14:55:18.084Z,31.40
2023-01-15T14:57:56.140Z,31.50
2023-01-15T15:00:24.468Z,31.50
2023-01-15T15:02:51.842Z,31.50
2023-01-15T15:05:20.992Z,31.60
2023-01-15T15:07:52.852Z,31.60
2023-01-15T15:10:25.499Z,31.70
2023-01-15T15:13:05.477Z,31.90
2023-01-15T15:15:39.065Z,31.90
2023-01-15T15:18:15.905Z,32.00
2023-01-15T15:20:48.192Z,32.10
2023-01-15T15:23:34.901Z,32.20
2023-01-15T15:26:03.232Z,32.20
2023-01-15T15:28:30.488Z,32.30
2023-01-15T15:31:01.749Z,32.40
2023-01-15T15:33:36.371Z,32.50
2023-01-15T15:36:03.592Z,32.60
2023-01-15T15:38:30.502Z,32.70
2023-01-15T15:40:59.802Z,32.70
2023-01-15T15:43:51.778Z,32.80
2023-01-15T15:46:43.225Z,32.90
2023-01-15T15:49:10.255Z,33.00
2023-01-15T15:51:40.121Z,33.00
2023-01-15T15:54:18.627Z,33.10
2023-01-15T15:56:52.209Z,33.10
2023-01-15T15:59:36.892Z,33.10
2023-01-15T16:02:18.816Z,33.20
2023-01-15T16:04:47.487Z,33.20
2023-01-15T16:07:21.028Z,33.30
2023-01-15T16:09:49.731Z,33.30
2023-01-15T16:12:16.919Z,33.40
2023-01-15T16:14:43.879Z,33.50
2023-01-15T16:17:13.053Z,33.40
2023-01-15T16:19:40.168Z,33.50
2023-01-15T16:22:07.707Z,33.60
2023-01-15T16:24:34.685Z,33.60
2023-01-15T16:27:08.099Z,33.60
2023-01-15T16:29:35.484Z,33.70
2023-01-15T16:32:09.197Z,33.70
2023-01-15T16:34:36.177Z,33.70
2023-01-15T16:37:03.233Z,33.80
2023-01-15T16:39:39.208Z,33.80
2023-01-15T16:42:22.831Z,33.80
2023-01-15T16:44:55.171Z,33.90
2023-01-15T16:47:24.015Z,33.90
2023-01-15T16:49:50.928Z,33.90
2023-01-15T16:52:37.665Z,34.00
2023-01-15T16:55:05.000Z,34.00
2023-01-15T16:57:33.713Z,34.10
2023-01-15T17:00:02.376Z,34.10
2023-01-15T17:02:34.862Z,34.10
2023-01-15T17:05:01.893Z,34.20
2023-01-15T17:07:34.687Z,34.20
2023-01-15T17:10:02.175Z,34.20
2023-01-15T17:12:31.143Z,34.20
2023-01-15T17:15:18.390Z,34.20
2023-01-15T17:17:49.522Z,34.20
2023-01-15T17:20:17.042Z,34.30
2023-01-15T17:22:47.913Z,34.30
2023-01-15T17:25:22.514Z,34.40
2023-01-15T17:27:49.439Z,34.40
2023-01-15T17:30:16.711Z,34.40
2023-01-15T17:32:43.673Z,34.40
2023-01-15T17:35:26.270Z,34.50
2023-01-15T17:37:53.505Z,34.50
2023-01-15T17:40:20.886Z,34.50
2023-01-15T17:42:47.777Z,34.50
2023-01-15T17:45:19.451Z,34.60
2023-01-15T17:47:46.392Z,34.60
2023-01-15T17:50:14.698Z,34.60
2023-01-15T17:52:45.546Z,34.60
2023-01-15T17:55:32.794Z,34.70
2023-01-15T17:58:19.791Z,34.70
2023-01-15T18:01:07.828Z,34.70
2023-01-15T18:03:55.227Z,34.80
2023-01-15T18:06:22.401Z,34.80
2023-01-15T18:08:52.722Z,34.80
2023-01-15T18:11:19.601Z,34.80
2023-01-15T18:13:49.568Z,34.80
2023-01-15T18:16:17.472Z,34.80
2023-01-15T18:18:44.570Z,34.80
2023-01-15T18:21:11.477Z,34.80
2023-01-15T18:23:39.755Z,34.90
2023-01-15T18:26:07.469Z,34.80
2023-01-15T18:28:35.252Z,34.90
2023-01-15T18:31:03.134Z,34.90
2023-01-15T18:33:30.091Z,34.90
2023-01-15T18:36:04.676Z,34.90
2023-01-15T18:38:31.759Z,34.90
2023-01-15T18:41:05.327Z,34.90
2023-01-15T18:43:52.088Z,35.00
2023-01-15T18:46:38.931Z,35.00
2023-01-15T18:49:05.882Z,35.00
2023-01-15T18:51:32.833Z,35.00
2023-01-15T18:53:59.750Z,35.00
2023-01-15T18:56:39.401Z,35.00
2023-01-15T18:59:10.262Z,35.00
2023-01-15T19:01:37.582Z,35.00
2023-01-15T19:04:06.850Z,35.00
2023-01-15T19:06:34.344Z,35.10
2023-01-15T19:09:01.671Z,35.10
2023-01-15T19:11:29.258Z,35.10
2023-01-15T19:14:16.253Z,35.10
2023-01-15T19:17:02.992Z,35.10
2023-01-15T19:19:30.286Z,35.10
2023-01-15T19:22:17.176Z,35.10
2023-01-15T19:24:44.204Z,35.20
2023-01-15T19:27:11.281Z,35.20
2023-01-15T19:29:38.228Z,35.20
2023-01-15T19:32:05.287Z,35.20
2023-01-15T19:34:34.095Z,35.30
2023-01-15T19:37:02.725Z,35.30
2023-01-15T19:39:30.009Z,35.30
2023-01-15T19:42:17.423Z,35.30
2023-01-15T19:45:04.313Z,35.30
2023-01-15T19:47:55.003Z,35.30
2023-01-15T19:50:24.681Z,35.40
2023-01-15T19:52:53.770Z,35.30
2023-01-15T19:55:21.547Z,35.30
2023-01-15T19:57:49.471Z,35.40
2023-01-15T20:00:18.402Z,35.40
2023-01-15T20:02:46.009Z,35.40
2023-01-15T20:05:13.939Z,35.40
2023-01-15T20:07:41.516Z,35.40
2023-01-15T20:10:10.032Z,35.50
2023-01-15T20:12:56.813Z,35.40
2023-01-15T20:15:24.226Z,35.50
2023-01-15T20:17:51.194Z,35.50
2023-01-15T20:20:18.173Z,35.50
2023-01-15T20:22:45.191Z,35.50
2023-01-15T20:25:15.295Z,35.50
2023-01-15T20:27:42.300Z,35.50
2023-01-15T20:30:11.142Z,35.50
2023-01-15T20:32:39.115Z,35.50
2023-01-15T20:35:07.418Z,35.60
2023-01-15T20:37:34.359Z,35.60
2023-01-15T20:40:04.215Z,35.60
2023-01-15T20:42:51.066Z,35.50
2023-01-15T20:45:18.005Z,35.60
2023-01-15T20:48:04.799Z,35.60
2023-01-15T20:50:36.346Z,35.60
2023-01-15T20:53:04.265Z,35.60
2023-01-15T20:55:45.688Z,35.60
2023-01-15T20:58:21.621Z,35.60
2023-01-15T21:00:48.861Z,35.70
2023-01-15T21:03:15.784Z,35.70
2023-01-15T21:05:42.657Z,35.70
2023-01-15T21:08:09.586Z,35.70
2023-01-15T21:10:36.485Z,35.70
2023-01-15T21:13:03.442Z,35.70
2023-01-15T21:15:30.354Z,35.70
2023-01-15T21:17:57.295Z,35.80
2023-01-15T21:20:24.232Z,35.80
2023-01-15T21:22:51.160Z,35.80
2023-01-15T21:25:18.048Z,35.80
2023-01-15T21:27:44.945Z,35.80
2023-01-15T21:30:12.109Z,35.80
2023-01-15T21:32:39.051Z,35.80
2023-01-15T21:35:06.153Z,35.80
2023-01-15T21:37:33.056Z,35.80
2023-01-15T21:39:59.952Z,35.90
2023-01-15T21:42:46.719Z,35.90
2023-01-15T21:45:13.624Z,35.90
2023-01-15T21:47:41.689Z,35.90
2023-01-15T21:50:09.388Z,35.90
2023-01-15T21:52:36.276Z,35.90
2023-01-15T21:55:03.246Z,35.90
2023-01-15T21:57:30.395Z,36.00
2023-01-15T21:59:57.331Z,36.00
2023-01-15T22:02:24.482Z,36.00
2023-01-15T22:04:51.435Z,36.60
2023-01-15T22:07:18.780Z,36.00
2023-01-15T22:09:45.843Z,36.10
2023-01-15T22:12:13.627Z,36.10
2023-01-15T22:14:40.512Z,36.10
2023-01-15T22:17:07.708Z,36.10
2023-01-15T22:19:34.658Z,36.10
2023-01-15T22:22:02.985Z,36.10
2023-01-15T22:24:32.205Z,36.20
2023-01-15T22:26:59.663Z,36.20
2023-01-15T22:29:28.025Z,36.20
2023-01-15T22:31:55.248Z,36.20
2023-01-15T22:34:22.836Z,36.20
2023-01-15T22:36:50.437Z,36.20
2023-01-15T22:39:17.528Z,36.20
2023-01-15T22:42:04.803Z,36.20
2023-01-15T22:44:32.244Z,36.20
2023-01-15T22:46:59.309Z,36.20
2023-01-15T22:49:26.282Z,36.30
2023-01-15T22:51:53.220Z,36.20
2023-01-15T22:54:20.222Z,36.20
2023-01-15T22:56:47.196Z,36.20
2023-01-15T22:59:14.681Z,36.20
2023-01-15T23:01:41.834Z,36.20
2023-01-15T23:04:12.855Z,36.20
2023-01-15T23:06:39.756Z,36.20
2023-01-15T23:09:06.861Z,36.30
2023-01-15T23:11:34.209Z,36.30
2023-01-15T23:14:01.155Z,36.30
2023-01-15T23:16:28.205Z,36.30
2023-01-15T23:18:55.169Z,36.30
2023-01-15T23:21:23.263Z,36.30
2023-01-15T23:23:57.479Z,36.30
2023-01-15T23:26:25.099Z,36.30
2023-01-15T23:28:52.342Z,36.40
2023-01-15T23:31:19.927Z,36.40
2023-01-15T23:33:47.246Z,36.40
2023-01-15T23:36:14.676Z,36.40
2023-01-15T23:38:42.520Z,36.40
2023-01-15T23:41:10.414Z,36.40
2023-01-15T23:43:58.222Z,36.50
2023-01-15T23:46:37.972Z,36.50
2023-01-15T23:49:07.410Z,36.50
2023-01-15T23:51:34.785Z,36.50
2023-01-15T23:54:01.871Z,36.50
2023-01-15T23:56:29.612Z,36.50
2023-01-15T23:58:56.766Z,36.50
